Snug Harbor, Washington
Current Conditions -  °F | °C
As of 5:04 AM on Tuesday 21 Oct 2014 (Local Time) from KBLI Reporting Station
Broken Clouds Broken Clouds  
Wind Chill: 55°   Ceiling: 1500
Heat Index: 55°   Visibility: 10mi
Dew Point: 50°   Wind: 14mph
Humidity: 82%   Direction: 150°SSE
Pressure: 29.78"   Gusts: 22mph
Location:  48.6939°N, 122.666°W
Report Text: KBLI 211204Z AUTO 15012G19KT 10SM BKN015 BKN040 BKN055 13/10 A2978 RMK AO2
Loading
Personal Weather Stations






























Interactive Weather Map
Tropical Storm Tracking
New forecast layout! Learn more

10-Day Weather Forecast

Advertisements
Track Severe Weather on mobile